Time;durP1;ratioP1;P1;durP2;ratioP2;P2;SDS_P1;SDS_P2;PMS_P1;PMS_P2;Temp;Humidity;BMP_temperature;BMP_pressure;BME280_temperature;BME280_humidity;BME280_pressure;Samples;Min_cycle;Max_cycle;Signal;HPM_P1;HPM_P2
2021/03/30 00:01:58;;;;;;;7.28;3.70;;;;;;;9.15;46.97;97239.91;5051158;28;20637;-55
2021/03/30 00:04:25;;;;;;;6.72;3.33;;;;;;;9.24;46.18;97238.16;5051195;28;20127;-55
2021/03/30 00:06:52;;;;;;;6.57;3.60;;;;;;;9.43;45.75;97245.47;5051036;28;20155;-55
2021/03/30 00:09:18;;;;;;;7.53;4.15;;;;;;;9.41;45.70;97244.94;5049958;28;20073;-58
2021/03/30 00:11:45;;;;;;;8.43;3.58;;;;;;;9.34;45.75;97243.41;5051370;28;20064;-57
2021/03/30 00:14:11;;;;;;;7.55;3.30;;;;;;;9.16;46.50;97236.09;5050844;28;20045;-56
2021/03/30 00:16:37;;;;;;;6.78;3.22;;;;;;;9.19;47.17;97229.31;5050143;28;20455;-54
2021/03/30 00:19:05;;;;;;;8.02;3.67;;;;;;;9.21;46.95;97233.34;5050655;28;20474;-56
2021/03/30 00:21:31;;;;;;;6.82;3.38;;;;;;;9.00;47.26;97227.41;5050903;28;20044;-56
2021/03/30 00:23:58;;;;;;;5.72;3.30;;;;;;;9.12;46.89;97233.19;5050761;28;20084;-56
2021/03/30 00:26:24;;;;;;;5.78;3.65;;;;;;;9.06;46.86;97225.44;5032499;28;20449;-55
2021/03/30 00:28:51;;;;;;;6.38;3.58;;;;;;;8.80;47.78;97224.97;5050321;28;20122;-55
2021/03/30 00:31:18;;;;;;;7.07;3.50;;;;;;;8.73;48.48;97224.50;5050757;28;20136;-56
2021/03/30 00:33:44;;;;;;;5.07;3.33;;;;;;;8.84;47.47;97229.50;5050180;28;20079;-57
2021/03/30 00:36:11;;;;;;;5.15;3.58;;;;;;;8.84;47.46;97217.91;5032861;28;20422;-56
2021/03/30 00:38:37;;;;;;;7.30;3.40;;;;;;;9.01;47.04;97220.91;5049962;28;20076;-56
2021/03/30 00:41:05;;;;;;;5.45;3.15;;;;;;;9.09;46.76;97219.47;5050632;28;20053;-56
2021/03/30 00:43:31;;;;;;;6.43;3.88;;;;;;;9.21;46.22;97221.75;5050807;28;20392;-56
2021/03/30 00:45:58;;;;;;;7.63;3.63;;;;;;;9.20;46.27;97220.13;5056432;28;20502;-54
2021/03/30 00:48:27;;;;;;;6.47;3.30;;;;;;;9.01;46.95;97215.53;5054840;28;20041;-59
2021/03/30 00:50:56;;;;;;;7.43;3.85;;;;;;;9.02;46.73;97217.13;5050659;28;20056;-58
2021/03/30 00:53:49;;;;;;;6.05;3.63;;;;;;;8.94;46.99;97219.66;5049961;28;20061;-54
2021/03/30 00:56:28;;;;;;;7.28;3.33;;;;;;;8.91;46.92;97218.34;5032476;28;20075;-57
2021/03/30 00:58:56;;;;;;;5.78;3.83;;;;;;;8.81;47.21;97218.50;5050016;28;20076;-59
2021/03/30 01:01:22;;;;;;;8.65;3.15;;;;;;;8.85;47.26;97214.13;5050348;28;20648;-58
2021/03/30 01:03:49;;;;;;;6.82;3.45;;;;;;;8.84;47.10;97223.31;5050541;28;20105;-59
2021/03/30 01:06:15;;;;;;;8.95;3.55;;;;;;;8.83;47.02;97221.69;5050299;28;20060;-58
2021/03/30 01:08:48;;;;;;;8.00;3.50;;;;;;;8.64;47.62;97217.06;5049856;28;20057;-56
2021/03/30 01:11:26;;;;;;;8.13;3.80;;;;;;;8.60;48.00;97221.41;5051094;28;20057;-56
2021/03/30 01:14:11;;;;;;;7.97;3.55;;;;;;;8.70;47.53;97219.69;5050442;28;20119;-56
2021/03/30 01:16:43;;;;;;;7.53;3.88;;;;;;;8.73;47.37;97217.22;5050301;28;20447;-56
2021/03/30 01:19:41;;;;;;;9.80;3.70;;;;;;;8.49;49.02;97222.63;5049708;28;20095;-55
2021/03/30 01:22:17;;;;;;;6.30;3.53;;;;;;;8.58;48.10;97217.38;5050355;28;20123;-55
2021/03/30 01:24:50;;;;;;;6.88;3.60;;;;;;;8.71;47.60;97218.59;5050417;28;20110;-54
2021/03/30 01:27:50;;;;;;;7.80;3.72;;;;;;;8.75;47.33;97219.63;5050745;28;20493;-52
2021/03/30 01:30:20;;;;;;;5.55;3.30;;;;;;;8.64;47.70;97213.53;5061373;28;20102;-54
2021/03/30 01:33:10;;;;;;;6.78;3.80;;;;;;;8.60;47.61;97216.00;5076196;22;20053;-56
2021/03/30 01:35:39;;;;;;;8.85;3.92;;;;;;;8.65;47.47;97213.28;5057502;28;20140;-57
2021/03/30 01:38:07;;;;;;;9.13;3.92;;;;;;;8.65;47.17;97209.78;5057000;28;20064;-55
2021/03/30 01:40:35;;;;;;;7.85;3.97;;;;;;;8.60;47.93;97213.31;5023592;28;20061;-56
2021/03/30 01:43:04;;;;;;;6.13;3.95;;;;;;;8.63;47.54;97217.34;5058288;28;20268;-56
2021/03/30 01:45:32;;;;;;;9.57;4.22;;;;;;;8.63;47.59;97215.44;5060146;28;20053;-56
2021/03/30 01:48:02;;;;;;;8.10;4.22;;;;;;;8.41;48.78;97213.25;5061912;28;20414;-55
2021/03/30 01:50:30;;;;;;;7.22;3.72;;;;;;;8.30;49.03;97208.25;5062160;28;20155;-53
2021/03/30 01:52:58;;;;;;;6.43;3.80;;;;;;;8.30;48.76;97209.03;5061630;28;20060;-54
2021/03/30 01:55:26;;;;;;;8.38;3.40;;;;;;;8.57;47.98;97202.31;5061188;28;20186;-56
2021/03/30 01:57:55;;;;;;;6.80;3.83;;;;;;;8.26;48.80;97208.00;5060674;28;20061;-53
2021/03/30 02:00:26;;;;;;;11.32;4.72;;;;;;;8.41;48.43;97198.97;5044212;28;20540;-53
2021/03/30 02:02:54;;;;;;;11.43;3.97;;;;;;;8.16;49.16;97198.13;5061519;28;20131;-54
2021/03/30 02:05:21;;;;;;;9.68;3.88;;;;;;;8.16;49.21;97194.66;5061197;28;20064;-54
2021/03/30 02:07:53;;;;;;;6.95;3.20;;;;;;;8.06;49.17;97198.25;5059899;28;20056;-52
2021/03/30 02:16:10;;;;;;;8.73;4.18;;;;;;;7.78;50.38;97191.75;5042143;28;20053;-56
2021/03/30 02:18:44;;;;;;;6.93;3.20;;;;;;;8.08;49.15;97198.75;5059231;28;20053;-51
2021/03/30 02:21:18;;;;;;;9.70;4.03;;;;;;;7.94;50.14;97195.91;5053163;28;20049;-51
2021/03/30 02:23:47;;;;;;;8.95;3.63;;;;;;;8.05;49.48;97199.31;5052363;28;20481;-51
2021/03/30 02:26:15;;;;;;;7.55;3.25;;;;;;;7.93;49.41;97198.91;5035211;28;20506;-51
2021/03/30 02:28:50;;;;;;;6.68;3.20;;;;;;;7.77;50.33;97192.03;5052602;28;20071;-53
2021/03/30 02:31:21;;;;;;;6.50;3.15;;;;;;;7.62;50.87;97195.66;5053255;28;20068;-52
2021/03/30 02:33:49;;;;;;;6.97;3.50;;;;;;;7.58;50.78;97203.50;5052038;28;20045;-51
2021/03/30 02:36:18;;;;;;;6.65;3.20;;;;;;;7.43;51.29;97190.97;5053386;28;20146;-51
2021/03/30 02:38:51;;;;;;;7.63;3.00;;;;;;;7.45;51.08;97190.69;5052493;28;20094;-55
2021/03/30 02:41:19;;;;;;;6.78;2.83;;;;;;;7.56;50.71;97188.72;5053482;28;20435;-54
2021/03/30 02:43:46;;;;;;;6.45;2.70;;;;;;;7.59;50.50;97193.53;5053727;28;20053;-52
2021/03/30 02:46:16;;;;;;;7.80;3.20;;;;;;;7.55;50.83;97193.31;5056164;28;20577;-54
2021/03/30 02:48:44;;;;;;;6.63;2.45;;;;;;;7.48;50.64;97190.13;5060588;28;20059;-56
2021/03/30 02:51:11;;;;;;;3.70;2.40;;;;;;;7.52;50.71;97193.88;5060737;28;20052;-53
2021/03/30 02:53:38;;;;;;;8.02;3.13;;;;;;;7.43;51.25;97179.38;5042327;28;20045;-54
2021/03/30 02:56:08;;;;;;;6.00;3.17;;;;;;;7.04;53.95;97190.97;5042595;28;20057;-56
2021/03/30 02:58:35;;;;;;;5.28;3.13;;;;;;;6.65;55.84;97191.69;5059743;28;20053;-52
2021/03/30 03:01:04;;;;;;;8.68;4.15;;;;;;;6.46;55.67;97188.81;5056000;28;20049;-53
2021/03/30 03:03:33;;;;;;;11.80;3.28;;;;;;;6.39;56.97;97193.69;5052626;28;20060;-52
2021/03/30 03:06:01;;;;;;;10.63;3.33;;;;;;;6.48;57.19;97185.84;5032593;28;20065;-54
2021/03/30 03:08:29;;;;;;;5.50;3.10;;;;;;;6.57;56.29;97186.09;5044019;28;20041;-54
2021/03/30 03:10:57;;;;;;;7.18;2.90;;;;;;;6.86;54.71;97191.59;5051063;28;20502;-53
2021/03/30 03:13:25;;;;;;;9.25;3.63;;;;;;;6.68;54.85;97182.28;5052427;28;20118;-54
2021/03/30 03:15:51;;;;;;;7.30;2.95;;;;;;;6.85;54.35;97190.78;5050611;28;20049;-54
2021/03/30 03:18:19;;;;;;;4.47;2.55;;;;;;;7.08;52.60;97183.94;5034147;28;20077;-53
2021/03/30 03:20:48;;;;;;;6.38;2.83;;;;;;;7.04;52.61;97188.25;5039773;28;20049;-55
2021/03/30 03:23:15;;;;;;;8.68;3.15;;;;;;;6.99;52.81;97185.63;5057049;28;20068;-51
2021/03/30 03:25:44;;;;;;;9.95;2.90;;;;;;;6.96;53.31;97194.25;5036084;28;20079;-52
2021/03/30 03:28:12;;;;;;;6.38;2.60;;;;;;;6.61;54.77;97182.56;5050889;28;20037;-54
2021/03/30 03:30:40;;;;;;;8.10;3.08;;;;;;;6.27;56.63;97185.94;5052528;28;20509;-53
2021/03/30 03:33:22;;;;;;;6.45;2.65;;;;;;;6.36;56.21;97186.16;5050203;28;20053;-51
2021/03/30 03:36:09;;;;;;;9.60;3.80;;;;;;;6.16;58.75;97191.59;5056233;28;20122;-53
2021/03/30 03:38:37;;;;;;;19.13;3.65;;;;;;;6.58;56.45;97196.56;5055953;28;20041;-52
2021/03/30 03:41:11;;;;;;;13.18;3.60;;;;;;;6.66;55.56;97190.63;5041531;28;20049;-53
2021/03/30 03:43:39;;;;;;;12.50;3.00;;;;;;;6.59;55.49;97190.09;5058440;28;20060;-56
2021/03/30 03:46:06;;;;;;;10.57;3.28;;;;;;;6.54;55.18;97195.50;5058941;28;20556;-54
2021/03/30 03:48:32;;;;;;;7.47;3.33;;;;;;;6.46;55.68;97193.38;5051799;28;20060;-50
2021/03/30 03:51:04;;;;;;;6.50;3.35;;;;;;;6.48;55.71;97193.91;5051658;28;20053;-51
2021/03/30 03:53:34;;;;;;;8.43;3.33;;;;;;;6.48;55.68;97192.03;5051337;28;20532;-51
2021/03/30 03:56:02;;;;;;;8.60;3.50;;;;;;;6.41;55.79;97196.91;5033502;28;20064;-55
2021/03/30 03:58:40;;;;;;;10.13;3.70;;;;;;;6.41;55.71;97196.09;5050710;28;20096;-49
2021/03/30 04:01:12;;;;;;;12.20;3.20;;;;;;;6.20;56.34;97206.91;5051797;28;20128;-50
2021/03/30 04:03:50;;;;;;;16.50;4.10;;;;;;;6.07;57.38;97215.53;5051401;28;20483;-51
2021/03/30 04:06:21;;;;;;;13.32;4.80;;;;;;;5.78;59.20;97202.63;5050362;28;20056;-50
2021/03/30 04:08:54;;;;;;;14.57;4.53;;;;;;;6.08;58.32;97214.47;5049213;28;20041;-52
2021/03/30 04:11:22;;;;;;;12.57;4.10;;;;;;;6.20;57.74;97211.47;5051323;28;20049;-52
2021/03/30 04:13:51;;;;;;;8.77;3.75;;;;;;;6.22;57.54;97204.75;5049923;28;20494;-55
2021/03/30 04:16:18;;;;;;;7.68;4.22;;;;;;;6.06;58.33;97208.56;5050851;28;20438;-56
2021/03/30 04:18:45;;;;;;;11.35;4.60;;;;;;;6.18;58.25;97211.75;5051395;28;20052;-54
2021/03/30 04:21:20;;;;;;;18.80;4.47;;;;;;;6.18;57.83;97214.44;5052033;28;20122;-52
2021/03/30 04:23:47;;;;;;;14.70;5.28;;;;;;;6.16;57.56;97211.22;5033267;28;20048;-54
2021/03/30 04:26:15;;;;;;;9.80;4.40;;;;;;;6.01;58.10;97208.53;5051220;28;20060;-58
2021/03/30 04:28:41;;;;;;;10.45;4.15;;;;;;;6.08;58.00;97211.78;5051591;28;20053;-54
2021/03/30 04:31:08;;;;;;;13.15;4.13;;;;;;;5.96;58.19;97205.88;5051075;28;20048;-55
2021/03/30 04:33:34;;;;;;;11.15;4.30;;;;;;;6.04;58.17;97210.69;5050281;28;20111;-56
2021/03/30 04:36:01;;;;;;;13.88;4.07;;;;;;;6.13;57.60;97206.38;5017232;28;20049;-56
2021/03/30 04:38:27;;;;;;;12.35;3.97;;;;;;;6.09;57.63;97213.38;5045859;28;20059;-54
2021/03/30 04:40:54;;;;;;;11.32;3.95;;;;;;;5.96;58.16;97211.25;5051920;28;20057;-53
2021/03/30 04:43:24;;;;;;;10.68;4.18;;;;;;;6.02;58.04;97210.97;5051954;28;20134;-56
2021/03/30 04:45:50;;;;;;;13.85;4.57;;;;;;;5.97;58.34;97210.97;5051249;28;20108;-54
2021/03/30 04:48:18;;;;;;;11.63;4.32;;;;;;;5.94;58.47;97216.09;5050693;28;20061;-57
2021/03/30 04:50:45;;;;;;;11.25;4.30;;;;;;;5.94;58.65;97216.09;5056150;28;20069;-54
2021/03/30 04:53:12;;;;;;;26.85;6.40;;;;;;;5.96;58.50;97212.06;5059119;28;20057;-56
2021/03/30 04:55:39;;;;;;;15.63;5.50;;;;;;;5.98;58.61;97215.28;5041693;28;20110;-56
2021/03/30 04:58:06;;;;;;;16.77;5.18;;;;;;;5.94;59.02;97219.56;5057891;28;20053;-55
2021/03/30 05:00:33;;;;;;;19.77;5.45;;;;;;;6.00;58.90;97223.06;5058420;28;20053;-55
2021/03/30 05:02:59;;;;;;;16.88;5.55;;;;;;;5.91;59.36;97220.06;5040964;28;20053;-57
2021/03/30 05:05:27;;;;;;;10.38;4.75;;;;;;;5.97;58.98;97218.22;5031016;28;20057;-52
2021/03/30 05:07:53;;;;;;;15.85;6.10;;;;;;;5.82;59.65;97222.53;5024393;28;20042;-55
2021/03/30 05:10:20;;;;;;;27.77;6.53;;;;;;;5.96;59.34;97224.69;5037955;28;20041;-52
2021/03/30 05:12:47;;;;;;;21.23;6.90;;;;;;;6.02;59.23;97226.28;5043201;28;20577;-54
2021/03/30 05:15:16;;;;;;;11.52;5.65;;;;;;;5.95;59.44;97229.25;5045004;28;20368;-53
2021/03/30 05:17:43;;;;;;;13.50;5.13;;;;;;;5.96;59.23;97228.19;5057509;28;20065;-53
2021/03/30 05:20:10;;;;;;;15.82;6.20;;;;;;;6.07;59.09;97232.44;5061178;28;20049;-55
2021/03/30 05:22:37;;;;;;;31.35;6.70;;;;;;;6.06;59.35;97238.09;5044461;28;20053;-53
2021/03/30 05:25:07;;;;;;;24.33;6.05;;;;;;;6.04;59.48;97237.56;5043925;28;20103;-54
2021/03/30 05:27:35;;;;;;;22.23;6.28;;;;;;;6.03;59.66;97236.75;5051178;28;20057;-53
2021/03/30 05:30:07;;;;;;;18.67;5.88;;;;;;;5.99;59.89;97238.38;5061367;28;20059;-55
2021/03/30 05:32:34;;;;;;;29.17;7.80;;;;;;;6.01;60.25;97243.47;5055214;28;20049;-50
2021/03/30 05:35:02;;;;;;;22.27;7.07;;;;;;;6.12;60.23;97239.72;5060602;28;20057;-53
2021/03/30 05:37:29;;;;;;;19.08;6.72;;;;;;;6.24;59.73;97242.09;5059814;28;20063;-54
2021/03/30 05:39:56;;;;;;;17.40;5.90;;;;;;;6.39;59.67;97244.75;5042797;28;20049;-52
2021/03/30 05:42:22;;;;;;;17.08;5.63;;;;;;;6.17;59.96;97238.88;5060812;28;20509;-51
2021/03/30 05:44:52;;;;;;;20.60;6.80;;;;;;;6.35;59.13;97232.94;5059068;28;20522;-53
2021/03/30 05:47:27;;;;;;;22.80;6.03;;;;;;;6.32;59.33;97241.53;5062001;28;20060;-54
2021/03/30 05:49:54;;;;;;;27.95;6.93;;;;;;;6.45;59.05;97238.28;5062781;28;20080;-53
2021/03/30 05:52:28;;;;;;;23.63;6.40;;;;;;;6.51;58.77;97242.56;5062309;28;20131;-54
2021/03/30 05:54:57;;;;;;;36.88;7.93;;;;;;;6.57;58.80;97245.25;5060180;28;20049;-54
2021/03/30 05:57:26;;;;;;;23.85;6.32;;;;;;;6.65;58.63;97247.38;5060621;28;20073;-53
2021/03/30 05:59:58;;;;;;;20.15;6.13;;;;;;;6.61;58.72;97244.44;5062206;28;20051;-54
2021/03/30 06:02:45;;;;;;;28.15;7.00;;;;;;;6.89;58.28;97251.06;5061120;28;20432;-56
2021/03/30 06:05:15;;;;;;;21.52;5.60;;;;;;;6.89;58.16;97252.91;5058268;28;20124;-54
2021/03/30 06:07:43;;;;;;;16.98;6.70;;;;;;;6.91;58.15;97248.88;5059120;28;20044;-56
2021/03/30 06:10:13;;;;;;;21.42;6.32;;;;;;;6.96;58.05;97256.94;5060921;28;20049;-54
2021/03/30 06:12:40;;;;;;;17.60;6.05;;;;;;;6.98;58.48;97256.66;5060573;28;20049;-53
2021/03/30 06:15:28;;;;;;;17.27;6.20;;;;;;;7.24;57.66;97258.13;5061171;28;20489;-54
2021/03/30 06:17:55;;;;;;;20.27;6.40;;;;;;;7.46;56.95;97265.00;5054517;28;20179;-52
2021/03/30 06:20:26;;;;;;;22.08;6.80;;;;;;;7.49;57.04;97267.94;5053928;28;20056;-55
2021/03/30 06:22:59;;;;;;;16.45;5.70;;;;;;;7.75;56.46;97267.75;5053347;28;20049;-55
2021/03/30 06:25:45;;;;;;;17.08;5.68;;;;;;;7.97;55.35;97270.81;5054533;28;20041;-50
2021/03/30 06:28:21;;;;;;;24.77;6.60;;;;;;;8.11;54.69;97267.47;5053497;28;20049;-53
2021/03/30 06:31:06;;;;;;;20.83;5.13;;;;;;;8.24;53.92;97274.09;5053026;28;20083;-53
2021/03/30 06:33:45;;;;;;;14.02;5.70;;;;;;;8.41;54.06;97274.50;5053469;28;20070;-55
2021/03/30 06:36:16;;;;;;;24.17;6.47;;;;;;;8.42;54.05;97270.72;5058212;28;20048;-50
2021/03/30 06:38:51;;;;;;;22.30;6.30;;;;;;;8.39;54.13;97263.19;5021953;28;20088;-49
2021/03/30 06:41:54;;;;;;;14.60;5.57;;;;;;;8.59;53.51;97264.88;5022760;28;20049;-54
2021/03/30 06:47:11;;;;;;;12.65;5.85;;;;;;;8.72;52.52;97274.19;5049265;28;20076;-50
2021/03/30 06:49:54;;;;;;;16.35;5.80;;;;;;;9.02;51.22;97268.41;5051083;28;20392;-56
2021/03/30 06:52:26;;;;;;;17.73;6.20;;;;;;;9.27;50.00;97275.38;5039921;28;20087;-51
2021/03/30 06:54:57;;;;;;;18.35;5.57;;;;;;;9.43;49.51;97272.47;5035873;28;20053;-51
2021/03/30 06:57:50;;;;;;;7.85;4.53;;;;;;;9.48;48.31;97275.09;5047876;28;20059;-54
2021/03/30 07:00:26;;;;;;;26.77;6.30;;;;;;;9.64;48.25;97262.16;5049540;28;20107;-52
2021/03/30 07:02:58;;;;;;;11.32;5.03;;;;;;;9.65;47.64;97271.88;5029798;28;20049;-52
2021/03/30 07:05:38;;;;;;;12.60;5.45;;;;;;;9.71;47.14;97268.81;5038421;28;20064;-55
2021/03/30 07:08:05;;;;;;;13.27;5.03;;;;;;;9.66;47.25;97268.91;5052123;28;20106;-52
2021/03/30 07:10:34;;;;;;;13.13;5.40;;;;;;;9.68;46.98;97265.88;5048877;28;20183;-52
2021/03/30 07:13:02;;;;;;;12.95;5.03;;;;;;;9.84;46.19;97268.06;5031293;28;20150;-55
2021/03/30 07:15:28;;;;;;;17.85;5.40;;;;;;;10.07;46.25;97271.75;5048691;28;20040;-52
2021/03/30 07:18:24;;;;;;;13.93;5.30;;;;;;;10.31;45.64;97267.34;5046460;28;20092;-54
2021/03/30 07:21:00;;;;;;;11.10;4.60;;;;;;;10.36;45.09;97270.75;5052823;28;20047;-50
2021/03/30 07:23:35;;;;;;;15.82;6.20;;;;;;;10.34;45.08;97275.66;5034722;28;20072;-53
2021/03/30 07:26:18;;;;;;;13.10;5.13;;;;;;;10.24;45.08;97275.81;5052495;28;20052;-53
2021/03/30 07:28:49;;;;;;;14.45;5.97;;;;;;;10.30;44.76;97274.63;5049094;28;20045;-54
2021/03/30 07:31:34;;;;;;;14.93;6.28;;;;;;;10.33;44.78;97275.94;5051832;28;20050;-51
2021/03/30 07:34:14;;;;;;;16.60;7.57;;;;;;;10.53;44.49;97272.91;5043759;28;20514;-56
2021/03/30 07:36:48;;;;;;;13.98;5.68;;;;;;;10.66;43.70;97274.00;5023695;28;20505;-54
2021/03/30 07:39:20;;;;;;;12.05;5.43;;;;;;;10.75;43.07;97275.69;5051716;28;20083;-54
2021/03/30 07:41:48;;;;;;;11.75;5.55;;;;;;;11.04;42.75;97268.38;5052232;28;20053;-51
2021/03/30 07:44:16;;;;;;;21.73;8.52;;;;;;;11.06;42.44;97268.91;5055955;28;20534;-53
2021/03/30 07:46:43;;;;;;;18.60;6.30;;;;;;;11.12;42.77;97273.09;5051916;28;20049;-50
2021/03/30 07:49:11;;;;;;;87.82;13.05;;;;;;;11.41;42.58;97264.63;5052712;28;20072;-53
2021/03/30 07:51:45;;;;;;;18.50;6.57;;;;;;;11.69;41.92;97271.56;5053256;28;20049;-55
2021/03/30 07:54:18;;;;;;;17.30;6.22;;;;;;;11.96;40.92;97271.78;5054580;28;20071;-54
2021/03/30 07:56:45;;;;;;;;;;;;;;;11.84;40.56;97267.72;5062205;28;20053;-52
2021/03/30 07:59:48;;;;;;;13.27;6.57;;;;;;;11.97;40.57;97270.69;5049732;28;20401;-55
2021/03/30 08:02:20;;;;;;;15.18;6.15;;;;;;;12.00;40.00;97268.16;5053977;28;20049;-56
2021/03/30 08:05:06;;;;;;;18.17;6.68;;;;;;;12.27;40.06;97264.50;5028154;28;20052;-53
2021/03/30 08:08:18;;;;;;;13.90;6.65;;;;;;;12.63;39.08;97263.56;5047297;28;20052;-51
2021/03/30 08:10:46;;;;;;;12.30;5.07;;;;;;;12.49;39.27;97271.81;5038753;28;20456;-52
2021/03/30 08:13:35;;;;;;;14.27;5.90;;;;;;;12.57;38.22;97262.09;5051075;28;20416;-57
2021/03/30 08:16:07;;;;;;;15.20;6.68;;;;;;;12.61;39.13;97271.25;5043625;28;20080;-54
2021/03/30 08:18:39;;;;;;;12.70;7.25;;;;;;;12.76;38.62;97273.53;5046454;28;20053;-54
2021/03/30 08:21:12;;;;;;;19.92;8.40;;;;;;;12.94;38.26;97274.41;5034065;28;20355;-55
2021/03/30 08:23:55;;;;;;;17.58;9.77;;;;;;;12.93;38.10;97269.28;5051353;28;20157;-52
2021/03/30 08:26:28;;;;;;;18.55;10.45;;;;;;;13.08;37.72;97272.38;5050805;28;20076;-50
2021/03/30 08:28:59;;;;;;;25.63;11.32;;;;;;;13.10;38.22;97272.06;5046724;28;20045;-56
2021/03/30 08:31:33;;;;;;;24.50;10.65;;;;;;;13.06;38.33;97273.78;5049909;28;20053;-52
2021/03/30 08:34:03;;;;;;;21.98;10.45;;;;;;;13.17;38.53;97275.13;5047146;28;20053;-51
2021/03/30 08:36:45;;;;;;;26.42;10.38;;;;;;;13.48;38.08;97271.50;5047667;28;20111;-53
2021/03/30 08:39:23;;;;;;;21.92;10.25;;;;;;;13.73;37.47;97270.75;5014570;28;20057;-53
2021/03/30 08:41:50;;;;;;;28.08;9.88;;;;;;;13.82;37.77;97270.75;5048976;28;20041;-52
2021/03/30 08:44:39;;;;;;;21.35;8.52;;;;;;;13.49;38.55;97275.84;5050231;28;20061;-51
2021/03/30 08:47:37;;;;;;;20.83;8.10;;;;;;;13.60;38.15;97276.34;5041827;28;20049;-52
2021/03/30 08:50:16;;;;;;;16.10;8.93;;;;;;;13.49;37.60;97273.13;5051182;28;20049;-49
2021/03/30 08:52:43;;;;;;;20.67;8.13;;;;;;;13.75;36.77;97281.31;5049458;28;20041;-53
2021/03/30 08:55:13;;;;;;;14.13;7.28;;;;;;;13.84;36.97;97276.66;5042078;28;20135;-54
2021/03/30 08:57:50;;;;;;;18.05;7.07;;;;;;;13.72;36.45;97293.63;5043024;28;20092;-54
2021/03/30 09:00:18;;;;;;;12.80;6.00;;;;;;;13.98;35.16;97282.75;5048162;28;20055;-56
2021/03/30 09:02:44;;;;;;;14.23;6.65;;;;;;;14.07;35.25;97288.19;5051920;28;20102;-56
2021/03/30 09:05:20;;;;;;;14.23;5.95;;;;;;;14.03;35.86;97285.28;5056202;28;20051;-54
2021/03/30 09:07:48;;;;;;;19.27;5.30;;;;;;;13.95;34.26;97283.38;5044920;28;20452;-53
2021/03/30 09:10:16;;;;;;;17.45;6.15;;;;;;;14.25;34.91;97283.50;5045185;28;20059;-56
2021/03/30 09:12:46;;;;;;;14.10;5.75;;;;;;;14.47;34.95;97285.25;5050646;28;20052;-56
2021/03/30 09:15:15;;;;;;;16.95;5.13;;;;;;;14.66;34.18;97280.25;5055645;28;20048;-57
2021/03/30 09:18:01;;;;;;;11.75;5.35;;;;;;;14.69;33.85;97282.31;5047001;28;20041;-57
2021/03/30 09:20:30;;;;;;;15.07;5.22;;;;;;;14.71;34.49;97271.88;5043241;28;20056;-54
2021/03/30 09:23:00;;;;;;;12.40;6.18;;;;;;;14.76;34.58;97273.66;5046147;28;20079;-53
2021/03/30 09:25:41;;;;;;;11.70;6.47;;;;;;;14.84;34.25;97280.19;5052241;28;20057;-54
2021/03/30 09:28:20;;;;;;;12.70;6.25;;;;;;;15.18;33.72;97273.78;5025923;28;20146;-51
2021/03/30 09:30:47;;;;;;;9.90;6.20;;;;;;;15.03;34.32;97272.41;5080750;22;20072;-56
2021/03/30 09:33:14;;;;;;;12.50;5.50;;;;;;;15.10;34.26;97269.94;5073199;28;20219;-54
2021/03/30 09:35:45;;;;;;;14.40;5.88;;;;;;;15.18;34.92;97268.31;5083979;28;20473;-58
2021/03/30 09:38:12;;;;;;;15.10;5.40;;;;;;;15.30;34.99;97264.88;5070117;28;20051;-59
2021/03/30 09:40:42;;;;;;;12.00;5.35;;;;;;;15.46;34.04;97265.09;5073194;28;20119;-55
2021/03/30 09:43:11;;;;;;;9.13;4.40;;;;;;;15.60;33.27;97255.53;5074074;28;20052;-54
2021/03/30 09:45:39;;;;;;;9.20;4.32;;;;;;;15.86;32.84;97262.75;5073846;28;20049;-54
2021/03/30 09:48:09;;;;;;;7.85;4.47;;;;;;;15.98;32.23;97265.50;5073308;28;20521;-58
2021/03/30 09:50:41;;;;;;;9.45;4.72;;;;;;;15.98;30.75;97265.50;5055703;28;20451;-55
2021/03/30 09:53:21;;;;;;;9.48;4.95;;;;;;;16.04;30.37;97257.94;5074126;28;20523;-54
2021/03/30 09:55:48;;;;;;;8.98;5.32;;;;;;;16.17;29.88;97265.03;5084958;28;20075;-56
2021/03/30 09:58:17;;;;;;;12.38;5.28;;;;;;;16.16;29.59;97251.72;5093431;28;20093;-57
2021/03/30 10:00:49;;;;;;;13.13;5.68;;;;;;;16.28;30.44;97257.22;5075821;28;20054;-52
2021/03/30 10:03:17;;;;;;;9.07;5.40;;;;;;;16.36;30.25;97250.88;5090587;28;20053;-56
2021/03/30 10:05:45;;;;;;;10.90;5.57;;;;;;;16.43;29.72;97256.56;5054486;28;20493;-52
2021/03/30 10:08:23;;;;;;;11.38;5.60;;;;;;;16.47;29.04;97252.03;5073100;28;20122;-54
2021/03/30 10:10:53;;;;;;;9.13;5.85;;;;;;;16.55;28.48;97248.41;5073196;28;20463;-56
2021/03/30 10:13:28;;;;;;;11.00;5.15;;;;;;;16.75;28.39;97246.75;5074269;28;20165;-56
2021/03/30 10:15:57;;;;;;;10.80;5.72;;;;;;;16.68;28.23;97243.75;5054925;28;20501;-56
2021/03/30 10:18:27;;;;;;;9.05;5.88;;;;;;;16.65;29.47;97246.38;5073065;28;20052;-56
2021/03/30 10:21:00;;;;;;;10.73;6.47;;;;;;;16.87;28.70;97242.47;5079263;28;20062;-52
2021/03/30 10:23:32;;;;;;;;;;;;;;;16.92;29.21;97234.81;5091530;28;20413;-53
2021/03/30 10:26:23;;;;;;;9.60;6.30;;;;;;;16.95;28.94;97236.84;5082044;28;19955;-58
2021/03/30 10:29:05;;;;;;;8.68;5.90;;;;;;;17.27;28.88;97228.88;5074983;28;20118;-56
2021/03/30 10:34:25;;;;;;;12.45;5.88;;;;;;;17.61;28.01;97229.47;5074999;28;20088;-57
2021/03/30 10:36:54;;;;;;;8.70;5.75;;;;;;;17.29;26.81;97230.13;5093175;28;20082;-59
2021/03/30 10:39:38;;;;;;;10.55;5.72;;;;;;;17.44;27.18;97231.34;5073763;28;20056;-54
2021/03/30 10:42:07;;;;;;;11.25;5.47;;;;;;;17.52;29.27;97224.16;5060319;28;20051;-56
2021/03/30 10:44:45;;;;;;;8.73;5.57;;;;;;;17.39;28.46;97225.34;5092839;28;20100;-56
2021/03/30 10:47:30;;;;;;;7.70;4.90;;;;;;;17.45;26.92;97227.47;5080326;28;20048;-57
2021/03/30 10:49:57;;;;;;;8.20;4.55;;;;;;;17.59;26.10;97224.38;5084830;28;20400;-55
2021/03/30 10:52:32;;;;;;;9.75;4.72;;;;;;;17.70;26.86;97220.00;5091951;28;20427;-54
2021/03/30 10:55:02;;;;;;;9.07;4.60;;;;;;;17.86;25.58;97211.88;5068047;28;20054;-53
2021/03/30 10:57:34;;;;;;;8.60;4.50;;;;;;;17.87;25.50;97207.97;5092095;28;20055;-58
2021/03/30 11:00:10;;;;;;;8.25;4.68;;;;;;;17.95;26.19;97207.03;5084452;28;20135;-56
2021/03/30 11:02:37;;;;;;;10.10;5.07;;;;;;;18.10;27.10;97207.41;5067347;28;20439;-55
2021/03/30 11:05:10;;;;;;;13.30;5.40;;;;;;;18.20;27.07;97209.69;5091324;28;20044;-56
2021/03/30 11:07:54;;;;;;;6.82;5.05;;;;;;;18.23;27.41;97206.22;5084459;28;20117;-57
2021/03/30 11:10:22;;;;;;;11.32;5.45;;;;;;;18.49;27.26;97204.91;5084870;28;20281;-57
2021/03/30 11:12:49;;;;;;;7.22;4.95;;;;;;;18.55;26.71;97193.34;5082133;28;20432;-53
2021/03/30 11:15:16;;;;;;;7.78;5.10;;;;;;;19.02;27.85;97191.75;5077140;28;20060;-52
2021/03/30 11:17:42;;;;;;;11.27;6.43;;;;;;;19.33;25.91;97194.41;5083578;28;20078;-51
2021/03/30 11:20:13;;;;;;;9.52;5.53;;;;;;;19.80;25.91;97190.75;5089069;28;20070;-54
2021/03/30 11:22:44;;;;;;;9.45;6.07;;;;;;;20.29;23.95;97184.59;5089139;28;20040;-52
2021/03/30 11:25:12;;;;;;;11.15;5.78;;;;;;;20.22;25.02;97178.19;5085540;28;20067;-54
2021/03/30 11:27:41;;;;;;;12.70;5.97;;;;;;;20.66;25.60;97175.03;5091068;28;20052;-56
2021/03/30 11:30:21;;;;;;;9.32;5.97;;;;;;;20.74;24.82;97183.06;5082059;28;20044;-54
2021/03/30 11:35:23;;;;;;;8.20;5.93;;;;;;;21.34;23.78;97174.09;5090710;28;20131;-54
2021/03/30 11:40:17;;;;;;;8.70;6.13;;;;;;;22.26;23.12;97165.44;5091339;28;20113;-57
2021/03/30 11:42:45;;;;;;;10.57;6.15;;;;;;;22.31;22.47;97161.53;5091555;28;20473;-57
2021/03/30 11:45:12;;;;;;;10.93;7.15;;;;;;;22.50;23.06;97155.81;5071415;28;20051;-55
2021/03/30 11:47:39;;;;;;;10.68;6.20;;;;;;;22.64;22.30;97155.91;5078365;28;20070;-54
2021/03/30 11:50:06;;;;;;;8.73;6.47;;;;;;;22.74;21.88;97156.38;5080065;28;20087;-52
2021/03/30 11:52:34;;;;;;;11.23;6.70;;;;;;;23.22;21.35;97150.84;5084883;28;20036;-52
2021/03/30 11:55:01;;;;;;;11.90;6.43;;;;;;;23.73;22.08;97144.41;5088750;28;20077;-58
2021/03/30 11:57:27;;;;;;;9.98;6.53;;;;;;;24.17;20.54;97141.38;5081390;28;20506;-58
2021/03/30 11:59:54;;;;;;;13.30;6.22;;;;;;;23.81;21.27;97137.72;5076047;28;20056;-51
2021/03/30 12:02:20;;;;;;;11.30;5.50;;;;;;;23.86;20.40;97137.34;5089712;28;20060;-56
2021/03/30 12:04:47;;;;;;;12.73;5.57;;;;;;;23.81;21.03;97136.94;5077703;28;20513;-55
2021/03/30 12:07:13;;;;;;;11.80;6.03;;;;;;;23.85;20.73;97129.44;5085993;28;20052;-54
2021/03/30 12:10:00;;;;;;;11.48;5.32;;;;;;;24.51;19.88;97120.91;5085398;28;20485;-53
2021/03/30 12:12:26;;;;;;;9.23;5.43;;;;;;;24.60;19.37;97130.38;5083683;28;20082;-54